createdAt,value
2022-09-04T00:02:06.746Z,5.07
2022-09-04T00:04:57.852Z,5.07
2022-09-04T00:07:29.618Z,5.35
2022-09-04T00:10:11.689Z,4.65
2022-09-04T00:12:57.032Z,4.90
2022-09-04T00:15:35.442Z,5.20
2022-09-04T00:18:23.467Z,5.10
2022-09-04T00:21:33.737Z,5.55
2022-09-04T00:24:07.508Z,5.03
2022-09-04T00:26:47.098Z,5.38
2022-09-04T00:29:50.189Z,5.00
2022-09-04T00:32:28.466Z,5.43
2022-09-04T00:35:16.378Z,4.88
2022-09-04T00:37:59.038Z,5.25
2022-09-04T00:40:31.460Z,5.00
2022-09-04T00:43:29.270Z,4.80
2022-09-04T00:46:30.285Z,5.30
2022-09-04T00:49:36.488Z,5.30
2022-09-04T00:52:14.695Z,5.20
2022-09-04T00:54:50.827Z,5.05
2022-09-04T00:57:37.760Z,5.28
2022-09-04T01:00:13.669Z,5.15
2022-09-04T01:03:07.363Z,4.80
2022-09-04T01:05:40.465Z,5.30
2022-09-04T01:08:20.316Z,5.13
2022-09-04T01:10:55.650Z,5.10
2022-09-04T01:13:51.781Z,5.05
2022-09-04T01:16:32.907Z,5.35
2022-09-04T01:19:05.041Z,4.85
2022-09-04T01:22:06.283Z,5.20
2022-09-04T01:24:48.161Z,5.18
2022-09-04T01:27:49.354Z,5.20
2022-09-04T01:30:19.129Z,5.80
2022-09-04T01:33:10.941Z,5.60
2022-09-04T01:36:27.885Z,5.63
2022-09-04T01:38:57.709Z,5.30
2022-09-04T01:41:50.358Z,5.20
2022-09-04T01:44:17.064Z,5.35
2022-09-04T01:47:03.377Z,5.43
2022-09-04T01:49:36.640Z,5.00
2022-09-04T01:52:19.295Z,5.05
2022-09-04T01:55:10.874Z,5.40
2022-09-04T01:57:54.436Z,5.75
2022-09-04T02:00:25.649Z,5.65
2022-09-04T02:03:08.267Z,5.60
2022-09-04T02:05:40.756Z,5.47
2022-09-04T02:08:22.718Z,5.35
2022-09-04T02:11:02.671Z,5.60
2022-09-04T02:14:00.142Z,4.93
2022-09-04T02:17:08.026Z,5.10
2022-09-04T02:19:53.370Z,5.00
2022-09-04T02:22:41.894Z,5.50
2022-09-04T02:25:29.692Z,5.72
2022-09-04T02:28:22.949Z,5.90
2022-09-04T02:31:09.896Z,5.40
2022-09-04T02:33:49.017Z,6.20
2022-09-04T02:36:29.051Z,7.35
2022-09-04T02:39:02.670Z,6.95
2022-09-04T02:41:52.094Z,5.60
2022-09-04T02:44:43.366Z,6.00
2022-09-04T02:47:24.956Z,5.22
2022-09-04T02:50:26.314Z,5.53
2022-09-04T02:53:10.367Z,5.88
2022-09-04T02:55:59.340Z,6.00
2022-09-04T02:58:54.085Z,5.57
2022-09-04T03:01:38.436Z,5.38
2022-09-04T03:04:27.917Z,5.55
2022-09-04T03:07:09.270Z,5.82
2022-09-04T03:09:51.393Z,5.90
2022-09-04T03:12:40.097Z,5.78
2022-09-04T03:15:41.118Z,5.20
2022-09-04T03:18:45.055Z,5.43
2022-09-04T03:21:21.390Z,6.53
2022-09-04T03:23:59.203Z,6.53
2022-09-04T03:26:29.364Z,6.60
2022-09-04T03:29:14.939Z,8.25
2022-09-04T03:31:47.469Z,8.38
2022-09-04T03:34:37.480Z,8.40
2022-09-04T03:37:10.236Z,13.27
2022-09-04T03:39:58.607Z,14.07
2022-09-04T03:42:50.433Z,10.45
2022-09-04T03:45:25.066Z,7.70
2022-09-04T03:48:10.021Z,7.80
2022-09-04T03:51:01.061Z,7.57
2022-09-04T03:53:50.741Z,9.40
2022-09-04T03:56:53.122Z,8.88
2022-09-04T03:59:47.698Z,8.43
2022-09-04T04:02:20.196Z,11.50
2022-09-04T04:05:08.677Z,10.15
2022-09-04T04:07:35.514Z,12.43
2022-09-04T04:10:33.712Z,12.00
2022-09-04T04:13:21.445Z,11.60
2022-09-04T04:16:14.554Z,10.88
2022-09-04T04:19:10.716Z,11.27
2022-09-04T04:21:58.579Z,12.00
2022-09-04T04:24:39.223Z,11.15
2022-09-04T04:27:25.661Z,13.65
2022-09-04T04:30:02.744Z,13.20
2022-09-04T04:33:11.154Z,13.25
2022-09-04T04:36:10.098Z,13.15
2022-09-04T04:38:59.318Z,12.52
2022-09-04T04:42:04.289Z,11.48
2022-09-04T04:45:17.941Z,14.20
2022-09-04T04:48:12.409Z,13.90
2022-09-04T04:50:59.388Z,15.82
2022-09-04T04:53:31.994Z,14.15
2022-09-04T04:56:32.845Z,13.45
2022-09-04T04:59:20.597Z,14.77
2022-09-04T05:02:13.880Z,15.38
2022-09-04T05:05:04.101Z,13.70
2022-09-04T05:08:02.849Z,17.60
2022-09-04T05:10:35.764Z,15.95
2022-09-04T05:13:16.453Z,14.75
2022-09-04T05:16:07.884Z,16.20
2022-09-04T05:18:57.203Z,16.55
2022-09-04T05:21:41.341Z,14.55
2022-09-04T05:24:22.809Z,16.98
2022-09-04T05:27:07.594Z,16.98
2022-09-04T05:29:40.749Z,15.23
2022-09-04T05:32:43.303Z,15.52
2022-09-04T05:35:25.129Z,15.23
2022-09-04T05:38:26.195Z,17.38
2022-09-04T05:41:17.624Z,16.48
2022-09-04T05:44:16.455Z,16.05
2022-09-04T05:47:13.717Z,16.25
2022-09-04T05:50:08.822Z,14.60
2022-09-04T05:52:44.557Z,14.80
2022-09-04T05:55:14.403Z,13.27
2022-09-04T05:57:47.205Z,13.48
2022-09-04T06:00:16.362Z,15.98
2022-09-04T06:03:19.386Z,13.10
2022-09-04T06:06:14.035Z,12.10
2022-09-04T06:09:25.276Z,14.57
2022-09-04T06:11:54.957Z,14.77
2022-09-04T06:14:43.023Z,15.07
2022-09-04T06:17:15.540Z,13.40
2022-09-04T06:20:19.796Z,14.98
2022-09-04T06:23:10.992Z,14.15
2022-09-04T06:25:43.858Z,16.00
2022-09-04T06:28:13.329Z,13.50
2022-09-04T06:31:06.747Z,13.43
2022-09-04T06:33:57.251Z,13.25
2022-09-04T06:36:48.426Z,13.85
2022-09-04T06:39:33.791Z,12.75
2022-09-04T06:42:27.181Z,12.10
2022-09-04T06:45:42.106Z,11.55
2022-09-04T06:48:24.262Z,11.98
2022-09-04T06:51:10.207Z,12.63
2022-09-04T06:53:48.691Z,10.73
2022-09-04T06:56:46.363Z,10.18
2022-09-04T06:59:27.186Z,10.52
2022-09-04T07:02:17.389Z,9.98
2022-09-04T07:05:14.785Z,8.88
2022-09-04T07:07:53.802Z,7.65
2022-09-04T07:10:26.344Z,7.55
2022-09-04T07:12:59.029Z,7.40
2022-09-04T07:16:05.654Z,8.63
2022-09-04T07:19:10.373Z,7.53
2022-09-04T07:22:06.845Z,7.85
2022-09-04T07:24:48.565Z,7.70
2022-09-04T07:27:18.026Z,8.55
2022-09-04T07:29:52.594Z,8.70
2022-09-04T07:32:33.955Z,8.02
2022-09-04T07:35:13.462Z,8.75
2022-09-04T07:37:59.071Z,9.73
2022-09-04T07:40:30.700Z,9.00
2022-09-04T07:43:12.584Z,8.55
2022-09-04T07:45:51.434Z,8.68
2022-09-04T07:48:36.951Z,9.38
2022-09-04T07:51:12.090Z,10.00
2022-09-04T07:54:00.002Z,10.25
2022-09-04T07:56:54.587Z,10.60
2022-09-04T07:59:54.831Z,11.02
2022-09-04T08:03:07.002Z,10.45
2022-09-04T08:06:14.229Z,9.80
2022-09-04T08:09:04.312Z,10.50
2022-09-04T08:11:51.395Z,11.13
2022-09-04T08:14:24.207Z,9.05
2022-09-04T08:17:04.014Z,10.75
2022-09-04T08:19:49.796Z,10.95
2022-09-04T08:22:35.675Z,11.20
2022-09-04T08:25:19.646Z,11.07
2022-09-04T08:28:34.482Z,10.02
2022-09-04T08:31:37.116Z,10.65
2022-09-04T08:34:24.382Z,10.60
2022-09-04T08:37:24.621Z,11.30
2022-09-04T08:40:19.408Z,10.40
2022-09-04T08:43:04.166Z,11.80
2022-09-04T08:45:49.747Z,11.55
2022-09-04T08:48:48.916Z,9.88
2022-09-04T08:51:21.419Z,10.55
2022-09-04T08:54:26.102Z,11.15
2022-09-04T08:57:35.978Z,11.48
2022-09-04T09:00:14.077Z,11.48
2022-09-04T09:03:05.343Z,13.48
2022-09-04T09:05:56.131Z,12.30
2022-09-04T09:08:41.047Z,11.27
2022-09-04T09:11:26.558Z,11.98
2022-09-04T09:14:31.811Z,13.20
2022-09-04T09:17:16.960Z,12.40
2022-09-04T09:20:28.072Z,13.35
2022-09-04T09:23:18.313Z,12.90
2022-09-04T09:26:12.310Z,12.45
2022-09-04T09:29:00.237Z,12.95
2022-09-04T09:31:52.056Z,12.82
2022-09-04T09:34:33.806Z,13.05
2022-09-04T09:37:02.686Z,16.30
2022-09-04T09:39:38.377Z,12.25
2022-09-04T09:42:08.208Z,13.45
2022-09-04T09:44:59.157Z,13.50
2022-09-04T09:47:47.017Z,13.35
2022-09-04T09:50:38.430Z,13.80
2022-09-04T09:53:47.109Z,13.07
2022-09-04T09:56:32.331Z,12.18
2022-09-04T09:59:27.209Z,13.90
2022-09-04T10:02:16.242Z,12.60
2022-09-04T10:05:12.442Z,13.07
2022-09-04T10:08:14.449Z,13.57
2022-09-04T10:11:10.291Z,13.50
2022-09-04T10:13:47.822Z,13.35
2022-09-04T10:17:13.025Z,11.32
2022-09-04T10:20:13.687Z,12.98
2022-09-04T10:23:05.782Z,11.73
2022-09-04T10:25:39.705Z,11.13
2022-09-04T10:28:43.999Z,12.10
2022-09-04T10:31:51.687Z,11.80
2022-09-04T10:34:46.386Z,10.93
2022-09-04T10:37:27.703Z,10.63
2022-09-04T10:40:22.697Z,10.80
2022-09-04T10:43:34.251Z,11.07
2022-09-04T10:46:09.660Z,10.93
2022-09-04T10:48:59.122Z,10.43
2022-09-04T10:52:05.562Z,10.50
2022-09-04T10:54:35.766Z,10.50
2022-09-04T10:57:47.977Z,11.60
2022-09-04T11:00:22.325Z,11.20
2022-09-04T11:03:20.876Z,10.17
2022-09-04T11:06:25.877Z,9.90
2022-09-04T11:09:11.419Z,8.37
2022-09-04T11:12:00.182Z,9.30
2022-09-04T11:14:52.086Z,10.00
2022-09-04T11:17:36.589Z,9.30
2022-09-04T11:20:25.331Z,9.10
2022-09-04T11:23:18.423Z,9.53
2022-09-04T11:25:52.143Z,8.47
2022-09-04T11:28:44.151Z,8.60
2022-09-04T11:31:35.090Z,7.00
2022-09-04T11:34:26.282Z,8.77
2022-09-04T11:37:27.009Z,8.90
2022-09-04T11:39:53.701Z,8.90
2022-09-04T11:42:41.325Z,7.83
2022-09-04T11:45:27.050Z,9.07
2022-09-04T11:48:42.088Z,10.43
2022-09-04T11:51:31.086Z,7.60
2022-09-04T11:54:09.274Z,7.60
2022-09-04T11:57:09.286Z,6.53
2022-09-04T12:00:11.463Z,6.90
2022-09-04T12:02:43.719Z,7.07
2022-09-04T12:05:18.716Z,5.83
2022-09-04T12:08:09.542Z,4.83
2022-09-04T12:10:47.828Z,5.30
2022-09-04T12:13:33.291Z,5.17
2022-09-04T12:16:21.763Z,4.30
2022-09-04T12:19:16.100Z,4.13
2022-09-04T12:21:55.424Z,3.20
2022-09-04T12:24:36.274Z,4.00
2022-09-04T12:27:21.728Z,4.07
2022-09-04T12:30:07.909Z,3.67
2022-09-04T12:33:08.359Z,3.90
2022-09-04T12:36:00.590Z,3.30
2022-09-04T12:38:44.013Z,3.50
2022-09-04T12:41:28.727Z,3.73
2022-09-04T12:44:29.303Z,2.97
2022-09-04T12:47:14.127Z,3.13
2022-09-04T12:50:00.009Z,3.10
2022-09-04T12:52:37.329Z,3.80
2022-09-04T12:55:19.246Z,3.10
2022-09-04T12:58:26.186Z,3.20
2022-09-04T13:01:02.997Z,3.30
2022-09-04T13:03:48.202Z,2.90
2022-09-04T13:06:33.682Z,2.90
2022-09-04T13:09:09.199Z,2.90
2022-09-04T13:11:54.032Z,2.90
2022-09-04T13:14:56.886Z,2.90
2022-09-04T13:17:48.284Z,3.17
2022-09-04T13:20:22.613Z,3.20
2022-09-04T13:23:04.385Z,3.00
2022-09-04T13:25:58.529Z,2.93
2022-09-04T13:28:35.832Z,2.80
2022-09-04T13:31:22.230Z,3.30
2022-09-04T13:34:01.258Z,3.10
2022-09-04T13:36:35.482Z,3.33
2022-09-04T13:39:25.464Z,3.00
2022-09-04T13:42:25.354Z,3.17
2022-09-04T13:44:55.316Z,3.10
2022-09-04T13:47:32.553Z,2.90
2022-09-04T13:50:29.231Z,2.77
2022-09-04T13:53:02.761Z,2.87
2022-09-04T13:55:37.751Z,2.70
2022-09-04T13:58:34.970Z,3.50
2022-09-04T14:01:07.180Z,3.43
2022-09-04T14:03:46.497Z,3.13
2022-09-04T14:06:16.767Z,3.50
2022-09-04T14:08:46.150Z,3.20
2022-09-04T14:11:40.451Z,2.70
2022-09-04T14:14:43.827Z,2.93
2022-09-04T14:17:12.513Z,3.23
2022-09-04T14:20:11.499Z,3.80
2022-09-04T14:22:57.983Z,4.10
2022-09-04T14:26:04.969Z,3.10
2022-09-04T14:28:40.896Z,3.20
2022-09-04T14:31:32.697Z,3.30
2022-09-04T14:34:01.983Z,3.37
2022-09-04T14:36:56.442Z,3.20
2022-09-04T14:39:34.372Z,3.07
2022-09-04T14:42:26.850Z,3.33
2022-09-04T14:45:13.181Z,3.10
2022-09-04T14:47:53.781Z,3.37
2022-09-04T14:50:28.458Z,2.80
2022-09-04T14:52:57.130Z,3.30
2022-09-04T14:55:30.028Z,3.40
2022-09-04T14:58:19.633Z,3.10
2022-09-04T15:01:08.326Z,3.33
2022-09-04T15:03:44.484Z,3.20
2022-09-04T15:06:29.053Z,2.83
2022-09-04T15:09:15.246Z,2.77
2022-09-04T15:11:42.461Z,3.50
2022-09-04T15:14:26.182Z,3.30
2022-09-04T15:17:00.025Z,3.17
2022-09-04T15:19:46.382Z,3.20
2022-09-04T15:22:27.055Z,2.80
2022-09-04T15:25:19.324Z,3.40
2022-09-04T15:27:49.747Z,3.20
2022-09-04T15:30:24.940Z,3.07
2022-09-04T15:33:20.935Z,3.80
2022-09-04T15:36:25.068Z,3.20
2022-09-04T15:38:57.993Z,3.37
2022-09-04T15:41:37.046Z,3.27
2022-09-04T15:44:32.440Z,3.63
2022-09-04T15:47:13.367Z,3.60
2022-09-04T15:50:05.879Z,3.60
2022-09-04T15:52:48.427Z,3.60
2022-09-04T15:55:35.639Z,3.57
2022-09-04T15:58:11.047Z,3.30
2022-09-04T16:00:53.869Z,3.47
2022-09-04T16:03:36.490Z,3.60
2022-09-04T16:06:09.435Z,3.87
2022-09-04T16:08:56.766Z,4.43
2022-09-04T16:11:44.900Z,4.00
2022-09-04T16:14:26.137Z,4.30
2022-09-04T16:17:00.055Z,3.40
2022-09-04T16:19:42.284Z,3.43
2022-09-04T16:22:36.742Z,4.00
2022-09-04T16:25:19.212Z,3.73
2022-09-04T16:28:06.018Z,4.00
2022-09-04T16:30:44.804Z,3.60
2022-09-04T16:33:32.502Z,3.50
2022-09-04T16:36:04.698Z,3.80
2022-09-04T16:38:53.270Z,3.80
2022-09-04T16:41:40.683Z,3.73
2022-09-04T16:44:25.794Z,3.53
2022-09-04T16:47:43.855Z,3.63
2022-09-04T16:50:23.649Z,3.50
2022-09-04T16:53:14.350Z,3.93
2022-09-04T16:55:49.435Z,3.47
2022-09-04T16:58:40.166Z,3.70
2022-09-04T17:01:17.996Z,3.97
2022-09-04T17:03:47.468Z,4.10
2022-09-04T17:06:28.199Z,3.43
2022-09-04T17:09:21.543Z,3.90
2022-09-04T17:11:55.585Z,3.90
2022-09-04T17:14:31.007Z,3.83
2022-09-04T17:17:30.831Z,3.70
2022-09-04T17:20:20.595Z,3.90
2022-09-04T17:26:07.793Z,4.07
2022-09-04T17:28:54.302Z,4.03
2022-09-04T17:29:29.614Z,4.03
2022-09-04T17:32:33.639Z,4.10
2022-09-04T17:40:42.211Z,4.03
2022-09-04T17:40:54.608Z,3.73
2022-09-04T17:41:38.243Z,4.80
2022-09-04T17:44:25.488Z,3.93
2022-09-04T17:47:10.142Z,4.43
2022-09-04T17:49:50.995Z,3.97
2022-09-04T17:53:22.971Z,3.83
2022-09-04T17:56:26.287Z,4.37
2022-09-04T17:59:01.819Z,4.50
2022-09-04T18:01:40.442Z,4.33
2022-09-04T18:04:22.890Z,4.47
2022-09-04T18:08:06.668Z,4.50
2022-09-04T18:10:38.608Z,4.23
2022-09-04T18:13:27.006Z,4.47
2022-09-04T18:16:35.201Z,4.60
2022-09-04T18:19:25.258Z,4.63
2022-09-04T18:22:26.460Z,5.00
2022-09-04T18:25:23.619Z,4.20
2022-09-04T18:28:15.887Z,4.70
2022-09-04T18:37:08.250Z,4.40
2022-09-04T18:37:24.927Z,5.23
2022-09-04T18:37:44.725Z,4.90
2022-09-04T18:40:08.050Z,4.40
2022-09-04T18:49:35.817Z,4.80
2022-09-04T18:50:34.795Z,4.67
2022-09-04T18:50:51.230Z,4.77
2022-09-04T18:51:52.011Z,5.00
2022-09-04T18:54:44.426Z,4.63
2022-09-04T18:57:46.784Z,4.83
2022-09-04T19:00:30.143Z,5.33
2022-09-04T19:03:26.837Z,5.00
2022-09-04T19:06:03.847Z,4.90
2022-09-04T19:08:37.815Z,4.77
2022-09-04T19:11:21.579Z,4.90
2022-09-04T19:14:10.220Z,4.82
2022-09-04T19:16:54.154Z,4.70
2022-09-04T19:19:32.308Z,5.22
2022-09-04T19:22:09.572Z,4.90
2022-09-04T19:24:56.496Z,5.30
2022-09-04T19:27:54.484Z,5.30
2022-09-04T19:30:25.281Z,4.95
2022-09-04T19:33:02.766Z,5.60
2022-09-04T19:35:32.446Z,5.27
2022-09-04T19:41:21.882Z,5.38
2022-09-04T19:46:08.156Z,5.47
2022-09-04T19:46:26.083Z,5.07
2022-09-04T19:47:02.570Z,4.90
2022-09-04T19:52:25.487Z,5.20
2022-09-04T19:53:31.648Z,5.00
2022-09-04T19:56:08.426Z,5.38
2022-09-04T19:58:42.571Z,4.95
2022-09-04T20:01:22.965Z,5.07
2022-09-04T20:03:58.675Z,5.07
2022-09-04T20:06:33.039Z,5.43
2022-09-04T20:09:15.273Z,5.75
2022-09-04T20:11:57.823Z,5.70
2022-09-04T20:14:26.635Z,5.40
2022-09-04T20:17:18.834Z,5.40
2022-09-04T20:19:55.770Z,5.28
2022-09-04T20:22:48.212Z,5.20
2022-09-04T20:25:17.833Z,5.80
2022-09-04T20:27:49.658Z,5.20
2022-09-04T20:30:24.851Z,5.70
2022-09-04T20:33:01.685Z,5.18
2022-09-04T20:35:34.586Z,5.60
2022-09-04T20:38:23.453Z,5.43
2022-09-04T20:41:01.967Z,5.60
2022-09-04T20:44:00.033Z,6.80
2022-09-04T20:52:43.302Z,5.85
2022-09-04T20:52:55.458Z,5.45
2022-09-04T20:53:10.618Z,5.95
2022-09-04T20:56:17.124Z,5.70
2022-09-04T21:03:09.236Z,5.90
2022-09-04T21:03:09.890Z,5.82
2022-09-04T21:05:26.915Z,6.18
2022-09-04T21:08:09.974Z,6.20
2022-09-04T21:10:46.857Z,6.00
2022-09-04T21:13:42.393Z,6.00
2022-09-04T21:16:36.051Z,6.15
2022-09-04T21:19:44.458Z,6.43
2022-09-04T21:22:32.304Z,6.13
2022-09-04T21:25:09.477Z,6.53
2022-09-04T21:27:48.182Z,5.70
2022-09-04T21:30:37.370Z,5.97
2022-09-04T21:33:26.915Z,5.80
2022-09-04T21:36:25.575Z,6.20
2022-09-04T21:39:18.087Z,6.28
2022-09-04T21:41:50.773Z,6.25
2022-09-04T21:44:36.315Z,6.55
2022-09-04T21:47:45.046Z,5.25
2022-09-04T21:50:43.121Z,5.72
2022-09-04T21:53:20.393Z,6.07
2022-09-04T22:02:22.980Z,6.50
2022-09-04T22:02:30.373Z,6.90
2022-09-04T22:02:42.420Z,7.05
2022-09-04T22:05:45.380Z,6.82
2022-09-04T22:13:34.110Z,6.40
2022-09-04T22:13:37.850Z,6.70
2022-09-04T22:14:57.869Z,6.80
2022-09-04T22:17:27.277Z,6.05
2022-09-04T22:20:15.778Z,6.00
2022-09-04T22:23:07.377Z,6.72
2022-09-04T22:25:55.169Z,6.40
2022-09-04T22:29:12.911Z,5.80
2022-09-04T22:32:20.018Z,6.72
2022-09-04T22:35:04.727Z,6.65
2022-09-04T22:38:09.580Z,6.22
2022-09-04T22:40:58.429Z,6.10
2022-09-04T22:43:26.923Z,6.13
2022-09-04T22:46:12.491Z,6.38
2022-09-04T22:49:11.927Z,6.82
2022-09-04T22:52:01.669Z,6.20
2022-09-04T22:54:51.527Z,6.47
2022-09-04T22:57:50.790Z,6.15
2022-09-04T23:00:20.151Z,6.50
2022-09-04T23:03:09.555Z,6.22
2022-09-04T23:05:55.515Z,6.40
2022-09-04T23:13:58.765Z,6.60
2022-09-04T23:14:02.222Z,6.72
2022-09-04T23:16:00.788Z,6.53
2022-09-04T23:22:32.879Z,6.78
2022-09-04T23:26:34.313Z,7.07
2022-09-04T23:26:48.243Z,6.50
2022-09-04T23:27:34.083Z,6.90
2022-09-04T23:30:25.579Z,6.70
2022-09-04T23:33:09.266Z,7.70
2022-09-04T23:36:00.317Z,6.70
2022-09-04T23:38:46.897Z,6.55
2022-09-04T23:41:32.083Z,6.45
2022-09-04T23:44:32.712Z,6.38
2022-09-04T23:47:09.312Z,6.90
2022-09-04T23:50:00.986Z,6.60
2022-09-04T23:52:49.665Z,7.05
2022-09-04T23:55:49.304Z,7.15
2022-09-04T23:59:02.926Z,7.50
